FLIGHT INFORMATION
United Airlines

UAL228

At Arrival Gate

KIAH
 KORD
DATE: 2020-01-01
GATE: C43
GATE DEPARTURE: 18:08
TAKEOFF: 18:24
DATE: 2020-01-01
GATE:  -
LANDING: 20:19
GATE ARRIVAL: 20:31
FLIGHT DATA
Crew: MICHAEL ROTH
Speed: 465 kts Altitude: 35000 ft
Stage Length: 805 nm
Route: 
Block Time: 2.4 Flight Time: 1.9
Fuel Used: 12961 LB
TRACK DATA
50000 FT1000 KTAltitudeSpeed
AIRCRAFT INFORMATION
Aircraft Type: B739ERSSW
Registration: N78448
SELCAL:  MSN/LN: 40003 / 3942
Operator: UNITED AIRLINES
Flights: 10 Block Time: 24 Flight Time: 20.6
Fuel Used: 135969 LB
  • DEPARTURE INFORMATION
    Date: 2020-01-01
    Airport: KIAH
    Gate: C43
    Gate Departure: 18:08
    Takeoff: 18:24
    ARRIVAL INFORMATION
    Date: 2020-01-01
    Airport: KORD
    Gate:  -
    Landing: 20:19
    Gate Arrival: 20:31
  • FLIGHT DATA
    Crew: MICHAEL ROTH
    Speed: 465 kts Altitude: 35000 ft
    Stage Length: 435 nm
    Route: 
    Block Time: 2.4 Flight Time: 1.9
    Fuel Used: 12961 LB
  • AIRCRAFT INFORMATION
    Aircraft Type: B739ERSSW
    Registration: N78448
    SELCAL:  MSN/LN: 40003 / 3942
    Operator: United Airlines
    Flights: 10 Block Time: 24 Flight Time: 20.6
    Fuel Used: 135969 LB

DATALINK LOG | Newest first | Current as of: 2020-05-25 13:17:34
LABEL ID SEQUENCE CONTENT Dn/Up
QD324220:31 7▼ Dn
QC204120:19▼ Dn
2U4703KORD 011951Z 20016G24KT 10SM SCT250 04/M03 A2965 RMK AO2 SLP047 T00441033▲ Up
2S4703KORD▼ Dn
463306/OV XXX /TM 1933 /FL320 /TP B739 /TA -45 /WV 261/75 /TB LGT /RM LGT TURB FL320-350▼ Dn
QB241418:24▼ Dn
QA080018:08 20▼ Dn
2U5946KIAH 011853Z 15012KT 10SM OVC044 14/04 A2997 RMK AO2 SLP150 T01440044▲ Up
2S5946KIAH▼ Dn
A31627CLEARED TO KORD VIA INDIE7 TPAKK LIT J180 FTZ TRTLL5. SQUAWK 6652.▲ Up
A31535CLEARED TO KORD VIA INDIE7 TPAKK LIT J180 FTZ TRTLL5. SQUAWK 5046.▲ Up
Q01424[LINK ACK]▲ Up
Q05751[LINK TEST]▼ Dn


AIRCRAFT HISTORY
FLIGHT DATE FLIGHT NUMBER ORIGIN DESTINATION ROUTE BLOCK TIME FLIGHT TIME FUEL USED (LB) PILOT
2020-02-17UAL519KPHX KLAX 1.20.97054Steven Perry
2020-01-23UAL5816CYYC KPHX 2.72.515272Pete Locascio
2020-01-19UAL6126KRNO CYYC 2.4213185Pete Locascio
2020-01-09UAL6520CYEG KRNO 2.52.214248Pete Locascio
2020-01-07UAL5829KIDA CYEG 2.21.711129Pete Locascio
2020-01-04UAL6123KIAH KIDA 3.5320126Pete Locascio
2020-01-02UAL1128KORD KIAH 32.616808Pete Locascio
2020-01-01UAL228KIAH KORD 2.41.912961Michael Roth
2019-12-14UAL519KDEN KIAH 1.91.712035Steven Perry
2019-12-11UAL1629KSFO KDEN 2.3213151Pete Locascio